Northglenn, Colorado
Current Conditions -  °F | °C
As of 2:47 PM on Tuesday 25 Nov 2014 (Local Time) from KBJC Reporting Station
Broken Clouds Broken Clouds  
Wind Chill:   Ceiling: 10000
Heat Index:   Visibility: 40mi
Dew Point: -9°   Wind: 26mph
Humidity: 27%   Direction: 260°W
Pressure: 29.87"   Gusts: 40mph
Location:  39.91°N, 104.98°W
Report Text: KBJC 252147Z 26023G35KT 40SM SCT060 BKN100 09/M09 A2987
Loading
Personal Weather Stations






























Interactive Weather Map New forecast layout! Learn more

10-Day Weather Forecast

Advertisements
Track Severe Weather on mobile